sensor_id;sensor_type;location;lat;lon;timestamp;P1;durP1;ratioP1;P2;durP2;ratioP2
45368;SDS011;51342;55.250;37.668;2023-12-20T00:00:01;4.80;;;3.07;;
45368;SDS011;51342;55.250;37.668;2023-12-20T00:02:35;6.03;;;3.10;;
45368;SDS011;51342;55.250;37.668;2023-12-20T00:05:07;4.60;;;3.03;;
45368;SDS011;51342;55.250;37.668;2023-12-20T00:07:39;5.17;;;2.70;;
45368;SDS011;51342;55.250;37.668;2023-12-20T00:10:11;4.60;;;2.97;;
45368;SDS011;51342;55.250;37.668;2023-12-20T00:12:43;5.03;;;2.70;;
45368;SDS011;51342;55.250;37.668;2023-12-20T00:15:15;5.47;;;3.23;;
45368;SDS011;51342;55.250;37.668;2023-12-20T00:17:47;8.40;;;3.20;;
45368;SDS011;51342;55.250;37.668;2023-12-20T00:20:18;5.87;;;2.77;;
45368;SDS011;51342;55.250;37.668;2023-12-20T00:22:49;4.40;;;3.10;;
45368;SDS011;51342;55.250;37.668;2023-12-20T00:25:21;4.00;;;2.80;;
45368;SDS011;51342;55.250;37.668;2023-12-20T00:27:52;5.13;;;2.57;;
45368;SDS011;51342;55.250;37.668;2023-12-20T00:30:24;4.50;;;2.80;;
45368;SDS011;51342;55.250;37.668;2023-12-20T00:32:55;4.97;;;2.80;;
45368;SDS011;51342;55.250;37.668;2023-12-20T00:35:27;4.87;;;2.93;;
45368;SDS011;51342;55.250;37.668;2023-12-20T00:37:59;5.67;;;3.27;;
45368;SDS011;51342;55.250;37.668;2023-12-20T00:40:30;6.67;;;3.27;;
45368;SDS011;51342;55.250;37.668;2023-12-20T00:43:02;6.20;;;3.30;;
45368;SDS011;51342;55.250;37.668;2023-12-20T00:45:33;5.93;;;3.60;;
45368;SDS011;51342;55.250;37.668;2023-12-20T00:48:05;7.23;;;4.07;;
45368;SDS011;51342;55.250;37.668;2023-12-20T00:50:37;7.33;;;3.80;;
45368;SDS011;51342;55.250;37.668;2023-12-20T00:53:08;7.00;;;3.70;;
45368;SDS011;51342;55.250;37.668;2023-12-20T00:55:40;7.47;;;3.90;;
45368;SDS011;51342;55.250;37.668;2023-12-20T00:58:11;8.37;;;4.10;;
45368;SDS011;51342;55.250;37.668;2023-12-20T01:00:43;7.50;;;4.10;;
45368;SDS011;51342;55.250;37.668;2023-12-20T01:03:15;7.10;;;4.30;;
45368;SDS011;51342;55.250;37.668;2023-12-20T01:05:46;8.03;;;4.20;;
45368;SDS011;51342;55.250;37.668;2023-12-20T01:08:19;7.60;;;4.20;;
45368;SDS011;51342;55.250;37.668;2023-12-20T01:10:50;5.83;;;3.70;;
45368;SDS011;51342;55.250;37.668;2023-12-20T01:13:22;7.13;;;4.17;;
45368;SDS011;51342;55.250;37.668;2023-12-20T01:15:54;6.87;;;4.03;;
45368;SDS011;51342;55.250;37.668;2023-12-20T01:18:26;7.33;;;3.87;;
45368;SDS011;51342;55.250;37.668;2023-12-20T01:21:01;6.97;;;3.60;;
45368;SDS011;51342;55.250;37.668;2023-12-20T01:23:34;6.27;;;3.60;;
45368;SDS011;51342;55.250;37.668;2023-12-20T01:26:05;7.57;;;3.87;;
45368;SDS011;51342;55.250;37.668;2023-12-20T01:28:37;5.00;;;3.27;;
45368;SDS011;51342;55.250;37.668;2023-12-20T01:31:09;5.43;;;3.17;;
45368;SDS011;51342;55.250;37.668;2023-12-20T01:33:40;5.77;;;3.47;;
45368;SDS011;51342;55.250;37.668;2023-12-20T01:36:12;6.03;;;3.50;;
45368;SDS011;51342;55.250;37.668;2023-12-20T01:38:43;6.77;;;3.20;;
45368;SDS011;51342;55.250;37.668;2023-12-20T01:41:14;7.83;;;3.80;;
45368;SDS011;51342;55.250;37.668;2023-12-20T01:43:46;6.77;;;3.57;;
45368;SDS011;51342;55.250;37.668;2023-12-20T01:46:17;9.13;;;3.60;;
45368;SDS011;51342;55.250;37.668;2023-12-20T01:48:50;6.03;;;3.47;;
45368;SDS011;51342;55.250;37.668;2023-12-20T01:51:22;6.80;;;3.87;;
45368;SDS011;51342;55.250;37.668;2023-12-20T01:53:55;6.40;;;3.67;;
45368;SDS011;51342;55.250;37.668;2023-12-20T01:56:28;7.27;;;3.27;;
45368;SDS011;51342;55.250;37.668;2023-12-20T01:59:01;6.20;;;2.93;;
45368;SDS011;51342;55.250;37.668;2023-12-20T02:01:33;7.27;;;3.80;;
45368;SDS011;51342;55.250;37.668;2023-12-20T02:04:05;5.33;;;3.40;;
45368;SDS011;51342;55.250;37.668;2023-12-20T02:06:36;5.33;;;3.43;;
45368;SDS011;51342;55.250;37.668;2023-12-20T02:09:11;4.80;;;3.10;;
45368;SDS011;51342;55.250;37.668;2023-12-20T02:11:42;6.37;;;3.07;;
45368;SDS011;51342;55.250;37.668;2023-12-20T02:14:14;5.87;;;3.33;;
45368;SDS011;51342;55.250;37.668;2023-12-20T02:16:46;4.43;;;2.77;;
45368;SDS011;51342;55.250;37.668;2023-12-20T02:19:17;3.90;;;2.77;;
45368;SDS011;51342;55.250;37.668;2023-12-20T02:22:04;6.00;;;2.93;;
45368;SDS011;51342;55.250;37.668;2023-12-20T02:24:36;4.70;;;2.90;;
45368;SDS011;51342;55.250;37.668;2023-12-20T02:27:08;5.97;;;2.77;;
45368;SDS011;51342;55.250;37.668;2023-12-20T02:29:39;4.33;;;3.00;;
45368;SDS011;51342;55.250;37.668;2023-12-20T02:32:11;4.87;;;3.03;;
45368;SDS011;51342;55.250;37.668;2023-12-20T02:34:42;6.10;;;2.93;;
45368;SDS011;51342;55.250;37.668;2023-12-20T02:37:14;3.90;;;2.80;;
45368;SDS011;51342;55.250;37.668;2023-12-20T02:39:45;4.83;;;3.30;;
45368;SDS011;51342;55.250;37.668;2023-12-20T02:42:17;4.43;;;2.90;;
45368;SDS011;51342;55.250;37.668;2023-12-20T02:44:48;4.70;;;3.00;;
45368;SDS011;51342;55.250;37.668;2023-12-20T02:47:20;5.03;;;3.00;;
45368;SDS011;51342;55.250;37.668;2023-12-20T02:49:51;3.83;;;2.40;;
45368;SDS011;51342;55.250;37.668;2023-12-20T02:52:27;4.47;;;2.70;;
45368;SDS011;51342;55.250;37.668;2023-12-20T02:54:59;4.77;;;2.30;;
45368;SDS011;51342;55.250;37.668;2023-12-20T02:57:31;2.77;;;1.90;;
45368;SDS011;51342;55.250;37.668;2023-12-20T03:00:04;2.93;;;1.80;;
45368;SDS011;51342;55.250;37.668;2023-12-20T03:02:36;4.10;;;2.13;;
45368;SDS011;51342;55.250;37.668;2023-12-20T03:05:08;2.50;;;1.70;;
45368;SDS011;51342;55.250;37.668;2023-12-20T03:07:39;3.90;;;2.00;;
45368;SDS011;51342;55.250;37.668;2023-12-20T03:10:10;2.90;;;1.70;;
45368;SDS011;51342;55.250;37.668;2023-12-20T03:12:42;2.53;;;1.60;;
45368;SDS011;51342;55.250;37.668;2023-12-20T03:15:13;2.90;;;1.37;;
45368;SDS011;51342;55.250;37.668;2023-12-20T03:17:45;2.50;;;1.40;;
45368;SDS011;51342;55.250;37.668;2023-12-20T03:20:17;2.53;;;1.60;;
45368;SDS011;51342;55.250;37.668;2023-12-20T03:22:48;4.57;;;1.97;;
45368;SDS011;51342;55.250;37.668;2023-12-20T03:25:19;4.80;;;2.47;;
45368;SDS011;51342;55.250;37.668;2023-12-20T03:27:51;4.67;;;2.20;;
45368;SDS011;51342;55.250;37.668;2023-12-20T03:30:23;5.00;;;2.33;;
45368;SDS011;51342;55.250;37.668;2023-12-20T03:32:54;6.20;;;2.53;;
45368;SDS011;51342;55.250;37.668;2023-12-20T03:35:26;4.80;;;2.87;;
45368;SDS011;51342;55.250;37.668;2023-12-20T03:37:57;5.00;;;2.80;;
45368;SDS011;51342;55.250;37.668;2023-12-20T03:40:30;5.50;;;2.97;;
45368;SDS011;51342;55.250;37.668;2023-12-20T03:43:02;5.33;;;2.90;;
45368;SDS011;51342;55.250;37.668;2023-12-20T03:45:33;5.63;;;3.07;;
45368;SDS011;51342;55.250;37.668;2023-12-20T03:48:05;4.53;;;3.10;;
45368;SDS011;51342;55.250;37.668;2023-12-20T03:50:36;6.97;;;3.40;;
45368;SDS011;51342;55.250;37.668;2023-12-20T03:53:08;4.53;;;2.83;;
45368;SDS011;51342;55.250;37.668;2023-12-20T03:55:39;5.17;;;3.20;;
45368;SDS011;51342;55.250;37.668;2023-12-20T03:58:11;4.73;;;3.33;;
45368;SDS011;51342;55.250;37.668;2023-12-20T04:00:42;5.20;;;3.10;;
45368;SDS011;51342;55.250;37.668;2023-12-20T04:03:13;5.23;;;3.10;;
45368;SDS011;51342;55.250;37.668;2023-12-20T04:05:45;5.10;;;3.03;;
45368;SDS011;51342;55.250;37.668;2023-12-20T04:08:16;5.10;;;3.07;;
45368;SDS011;51342;55.250;37.668;2023-12-20T04:10:48;4.23;;;2.70;;
45368;SDS011;51342;55.250;37.668;2023-12-20T04:13:19;5.63;;;3.00;;
45368;SDS011;51342;55.250;37.668;2023-12-20T04:15:51;5.23;;;2.87;;
45368;SDS011;51342;55.250;37.668;2023-12-20T04:18:23;7.00;;;3.07;;
45368;SDS011;51342;55.250;37.668;2023-12-20T04:20:54;4.63;;;2.30;;
45368;SDS011;51342;55.250;37.668;2023-12-20T04:23:25;4.37;;;2.80;;
45368;SDS011;51342;55.250;37.668;2023-12-20T04:25:57;5.17;;;2.70;;
45368;SDS011;51342;55.250;37.668;2023-12-20T04:28:28;5.40;;;2.90;;
45368;SDS011;51342;55.250;37.668;2023-12-20T04:31:02;4.73;;;2.90;;
45368;SDS011;51342;55.250;37.668;2023-12-20T04:33:34;5.47;;;2.83;;
45368;SDS011;51342;55.250;37.668;2023-12-20T04:36:05;4.67;;;2.80;;
45368;SDS011;51342;55.250;37.668;2023-12-20T04:38:37;4.10;;;2.63;;
45368;SDS011;51342;55.250;37.668;2023-12-20T04:41:08;3.97;;;2.40;;
45368;SDS011;51342;55.250;37.668;2023-12-20T04:43:40;4.67;;;2.50;;
45368;SDS011;51342;55.250;37.668;2023-12-20T04:46:11;4.20;;;2.87;;
45368;SDS011;51342;55.250;37.668;2023-12-20T04:48:43;5.00;;;2.80;;
45368;SDS011;51342;55.250;37.668;2023-12-20T04:51:14;5.63;;;3.10;;
45368;SDS011;51342;55.250;37.668;2023-12-20T04:53:46;4.93;;;3.00;;
45368;SDS011;51342;55.250;37.668;2023-12-20T04:56:17;4.63;;;2.80;;
45368;SDS011;51342;55.250;37.668;2023-12-20T04:58:49;5.70;;;2.87;;
45368;SDS011;51342;55.250;37.668;2023-12-20T05:01:20;5.40;;;2.40;;
45368;SDS011;51342;55.250;37.668;2023-12-20T05:03:52;4.70;;;3.00;;
45368;SDS011;51342;55.250;37.668;2023-12-20T05:06:23;4.63;;;2.43;;
45368;SDS011;51342;55.250;37.668;2023-12-20T05:08:55;3.87;;;2.47;;
45368;SDS011;51342;55.250;37.668;2023-12-20T05:11:27;5.30;;;2.40;;
45368;SDS011;51342;55.250;37.668;2023-12-20T05:13:58;4.63;;;2.50;;
45368;SDS011;51342;55.250;37.668;2023-12-20T05:16:29;3.57;;;2.37;;
45368;SDS011;51342;55.250;37.668;2023-12-20T05:19:01;4.43;;;2.50;;
45368;SDS011;51342;55.250;37.668;2023-12-20T05:21:37;4.40;;;2.70;;
45368;SDS011;51342;55.250;37.668;2023-12-20T05:24:08;4.40;;;2.40;;
45368;SDS011;51342;55.250;37.668;2023-12-20T05:26:40;4.63;;;2.60;;
45368;SDS011;51342;55.250;37.668;2023-12-20T05:29:12;4.37;;;2.57;;
45368;SDS011;51342;55.250;37.668;2023-12-20T05:31:43;4.30;;;2.23;;
45368;SDS011;51342;55.250;37.668;2023-12-20T05:34:15;4.30;;;2.20;;
45368;SDS011;51342;55.250;37.668;2023-12-20T05:36:48;4.10;;;2.20;;
45368;SDS011;51342;55.250;37.668;2023-12-20T05:39:20;4.47;;;2.30;;
45368;SDS011;51342;55.250;37.668;2023-12-20T05:41:52;4.27;;;2.33;;
45368;SDS011;51342;55.250;37.668;2023-12-20T05:44:24;3.87;;;2.20;;
45368;SDS011;51342;55.250;37.668;2023-12-20T05:46:56;3.40;;;2.13;;
45368;SDS011;51342;55.250;37.668;2023-12-20T05:49:28;3.60;;;2.17;;
45368;SDS011;51342;55.250;37.668;2023-12-20T05:51:59;5.87;;;2.20;;
45368;SDS011;51342;55.250;37.668;2023-12-20T05:54:31;2.53;;;1.73;;
45368;SDS011;51342;55.250;37.668;2023-12-20T05:57:03;3.40;;;1.77;;
45368;SDS011;51342;55.250;37.668;2023-12-20T05:59:35;2.97;;;1.80;;
45368;SDS011;51342;55.250;37.668;2023-12-20T06:02:07;2.90;;;1.87;;
45368;SDS011;51342;55.250;37.668;2023-12-20T06:04:41;3.13;;;1.80;;
45368;SDS011;51342;55.250;37.668;2023-12-20T06:07:15;3.37;;;1.60;;
45368;SDS011;51342;55.250;37.668;2023-12-20T06:09:46;4.40;;;1.67;;
45368;SDS011;51342;55.250;37.668;2023-12-20T06:12:20;3.43;;;1.50;;
45368;SDS011;51342;55.250;37.668;2023-12-20T06:14:52;2.83;;;1.80;;
45368;SDS011;51342;55.250;37.668;2023-12-20T06:17:24;3.63;;;1.47;;
45368;SDS011;51342;55.250;37.668;2023-12-20T06:19:55;2.83;;;1.50;;
45368;SDS011;51342;55.250;37.668;2023-12-20T06:22:27;2.47;;;1.40;;
45368;SDS011;51342;55.250;37.668;2023-12-20T06:24:58;2.80;;;1.60;;
45368;SDS011;51342;55.250;37.668;2023-12-20T06:27:30;3.47;;;1.90;;
45368;SDS011;51342;55.250;37.668;2023-12-20T06:30:04;2.13;;;1.33;;
45368;SDS011;51342;55.250;37.668;2023-12-20T06:32:37;2.53;;;1.60;;
45368;SDS011;51342;55.250;37.668;2023-12-20T06:35:10;3.17;;;1.77;;
45368;SDS011;51342;55.250;37.668;2023-12-20T06:37:42;2.80;;;1.60;;
45368;SDS011;51342;55.250;37.668;2023-12-20T06:40:15;3.20;;;1.87;;
45368;SDS011;51342;55.250;37.668;2023-12-20T06:42:47;4.03;;;1.90;;
45368;SDS011;51342;55.250;37.668;2023-12-20T06:45:19;2.90;;;1.60;;
45368;SDS011;51342;55.250;37.668;2023-12-20T06:47:52;2.80;;;1.70;;
45368;SDS011;51342;55.250;37.668;2023-12-20T06:50:26;2.53;;;1.67;;
45368;SDS011;51342;55.250;37.668;2023-12-20T06:52:59;3.33;;;1.70;;
45368;SDS011;51342;55.250;37.668;2023-12-20T06:55:38;2.57;;;1.80;;
45368;SDS011;51342;55.250;37.668;2023-12-20T06:58:11;3.10;;;1.57;;
45368;SDS011;51342;55.250;37.668;2023-12-20T07:00:45;2.90;;;1.83;;
45368;SDS011;51342;55.250;37.668;2023-12-20T07:03:19;3.10;;;1.90;;
45368;SDS011;51342;55.250;37.668;2023-12-20T07:05:53;2.83;;;2.03;;
45368;SDS011;51342;55.250;37.668;2023-12-20T07:08:27;2.97;;;2.10;;
45368;SDS011;51342;55.250;37.668;2023-12-20T07:11:02;4.47;;;2.07;;
45368;SDS011;51342;55.250;37.668;2023-12-20T07:13:36;2.83;;;2.07;;
45368;SDS011;51342;55.250;37.668;2023-12-20T07:16:09;4.67;;;2.30;;
45368;SDS011;51342;55.250;37.668;2023-12-20T07:18:42;5.43;;;2.40;;
45368;SDS011;51342;55.250;37.668;2023-12-20T07:21:15;4.87;;;2.37;;
45368;SDS011;51342;55.250;37.668;2023-12-20T07:23:48;3.33;;;2.30;;
45368;SDS011;51342;55.250;37.668;2023-12-20T07:26:21;3.60;;;2.23;;
45368;SDS011;51342;55.250;37.668;2023-12-20T07:28:55;5.43;;;2.50;;
45368;SDS011;51342;55.250;37.668;2023-12-20T07:31:27;6.27;;;2.23;;
45368;SDS011;51342;55.250;37.668;2023-12-20T07:34:01;4.83;;;2.87;;
45368;SDS011;51342;55.250;37.668;2023-12-20T07:36:37;3.83;;;2.33;;
45368;SDS011;51342;55.250;37.668;2023-12-20T07:39:09;3.90;;;2.30;;
45368;SDS011;51342;55.250;37.668;2023-12-20T07:41:43;3.40;;;2.40;;
45368;SDS011;51342;55.250;37.668;2023-12-20T07:44:16;4.30;;;2.43;;
45368;SDS011;51342;55.250;37.668;2023-12-20T07:46:50;4.10;;;2.17;;
45368;SDS011;51342;55.250;37.668;2023-12-20T07:49:21;3.87;;;2.33;;
45368;SDS011;51342;55.250;37.668;2023-12-20T07:51:54;3.90;;;2.50;;
45368;SDS011;51342;55.250;37.668;2023-12-20T07:54:28;3.53;;;2.77;;
45368;SDS011;51342;55.250;37.668;2023-12-20T07:57:02;4.43;;;2.43;;
45368;SDS011;51342;55.250;37.668;2023-12-20T07:59:35;3.07;;;2.30;;
45368;SDS011;51342;55.250;37.668;2023-12-20T08:02:10;4.10;;;2.57;;
45368;SDS011;51342;55.250;37.668;2023-12-20T08:04:44;3.53;;;2.47;;
45368;SDS011;51342;55.250;37.668;2023-12-20T08:07:17;3.17;;;2.10;;
45368;SDS011;51342;55.250;37.668;2023-12-20T08:09:50;3.87;;;2.73;;
45368;SDS011;51342;55.250;37.668;2023-12-20T08:12:26;4.23;;;2.47;;
45368;SDS011;51342;55.250;37.668;2023-12-20T08:15:02;3.10;;;2.30;;
45368;SDS011;51342;55.250;37.668;2023-12-20T08:17:38;3.93;;;2.20;;
45368;SDS011;51342;55.250;37.668;2023-12-20T08:20:13;4.23;;;2.60;;
45368;SDS011;51342;55.250;37.668;2023-12-20T08:22:47;3.73;;;2.50;;
45368;SDS011;51342;55.250;37.668;2023-12-20T08:25:19;3.67;;;2.30;;
45368;SDS011;51342;55.250;37.668;2023-12-20T08:27:51;3.10;;;2.30;;
45368;SDS011;51342;55.250;37.668;2023-12-20T08:30:25;3.53;;;2.20;;
45368;SDS011;51342;55.250;37.668;2023-12-20T08:33:01;3.03;;;2.00;;
45368;SDS011;51342;55.250;37.668;2023-12-20T08:35:34;3.10;;;2.50;;
45368;SDS011;51342;55.250;37.668;2023-12-20T08:38:07;3.73;;;2.50;;
45368;SDS011;51342;55.250;37.668;2023-12-20T08:40:42;4.20;;;2.37;;
45368;SDS011;51342;55.250;37.668;2023-12-20T08:43:18;3.83;;;2.43;;
45368;SDS011;51342;55.250;37.668;2023-12-20T08:45:52;5.00;;;2.80;;
45368;SDS011;51342;55.250;37.668;2023-12-20T08:48:26;3.53;;;2.33;;
45368;SDS011;51342;55.250;37.668;2023-12-20T08:51:00;5.07;;;2.93;;
45368;SDS011;51342;55.250;37.668;2023-12-20T08:53:40;4.70;;;3.00;;
45368;SDS011;51342;55.250;37.668;2023-12-20T08:56:13;3.97;;;2.93;;
45368;SDS011;51342;55.250;37.668;2023-12-20T08:58:48;4.43;;;3.27;;
45368;SDS011;51342;55.250;37.668;2023-12-20T09:01:23;5.37;;;3.10;;
45368;SDS011;51342;55.250;37.668;2023-12-20T09:03:58;4.10;;;3.20;;
45368;SDS011;51342;55.250;37.668;2023-12-20T09:06:29;4.23;;;3.30;;
45368;SDS011;51342;55.250;37.668;2023-12-20T09:09:01;5.63;;;3.20;;
45368;SDS011;51342;55.250;37.668;2023-12-20T09:11:34;5.20;;;3.40;;
45368;SDS011;51342;55.250;37.668;2023-12-20T09:14:08;4.40;;;2.90;;
45368;SDS011;51342;55.250;37.668;2023-12-20T09:16:40;4.47;;;3.37;;
45368;SDS011;51342;55.250;37.668;2023-12-20T09:19:15;3.87;;;2.97;;
45368;SDS011;51342;55.250;37.668;2023-12-20T09:21:48;4.83;;;3.00;;
45368;SDS011;51342;55.250;37.668;2023-12-20T09:24:22;4.90;;;3.03;;
45368;SDS011;51342;55.250;37.668;2023-12-20T09:26:53;3.87;;;2.70;;
45368;SDS011;51342;55.250;37.668;2023-12-20T09:29:28;4.13;;;3.10;;
45368;SDS011;51342;55.250;37.668;2023-12-20T09:32:04;4.17;;;3.03;;
45368;SDS011;51342;55.250;37.668;2023-12-20T09:34:37;4.27;;;2.90;;
45368;SDS011;51342;55.250;37.668;2023-12-20T09:37:13;4.43;;;3.27;;
45368;SDS011;51342;55.250;37.668;2023-12-20T09:39:48;4.97;;;3.00;;
45368;SDS011;51342;55.250;37.668;2023-12-20T09:42:24;4.57;;;2.80;;
45368;SDS011;51342;55.250;37.668;2023-12-20T09:45:11;4.10;;;2.70;;
45368;SDS011;51342;55.250;37.668;2023-12-20T09:47:48;4.20;;;2.63;;
45368;SDS011;51342;55.250;37.668;2023-12-20T09:50:23;4.70;;;3.13;;
45368;SDS011;51342;55.250;37.668;2023-12-20T09:53:03;4.20;;;2.83;;
45368;SDS011;51342;55.250;37.668;2023-12-20T09:55:36;5.10;;;3.00;;
45368;SDS011;51342;55.250;37.668;2023-12-20T09:58:10;5.40;;;3.10;;
45368;SDS011;51342;55.250;37.668;2023-12-20T10:00:44;4.20;;;2.80;;
45368;SDS011;51342;55.250;37.668;2023-12-20T10:03:22;4.33;;;2.50;;
45368;SDS011;51342;55.250;37.668;2023-12-20T10:05:57;3.78;;;2.75;;
45368;SDS011;51342;55.250;37.668;2023-12-20T10:08:32;4.30;;;2.43;;
45368;SDS011;51342;55.250;37.668;2023-12-20T10:11:06;3.50;;;2.40;;
45368;SDS011;51342;55.250;37.668;2023-12-20T10:13:41;3.70;;;2.60;;
45368;SDS011;51342;55.250;37.668;2023-12-20T10:16:17;4.57;;;3.20;;
45368;SDS011;51342;55.250;37.668;2023-12-20T10:18:50;4.90;;;3.40;;
45368;SDS011;51342;55.250;37.668;2023-12-20T10:21:23;3.70;;;2.97;;
45368;SDS011;51342;55.250;37.668;2023-12-20T10:24:00;3.92;;;2.67;;
45368;SDS011;51342;55.250;37.668;2023-12-20T10:26:35;4.63;;;2.73;;
45368;SDS011;51342;55.250;37.668;2023-12-20T10:29:09;3.97;;;2.53;;
45368;SDS011;51342;55.250;37.668;2023-12-20T10:31:41;5.07;;;3.10;;
45368;SDS011;51342;55.250;37.668;2023-12-20T10:34:17;4.33;;;2.87;;
45368;SDS011;51342;55.250;37.668;2023-12-20T10:36:53;5.20;;;3.30;;
45368;SDS011;51342;55.250;37.668;2023-12-20T10:39:30;5.03;;;2.67;;
45368;SDS011;51342;55.250;37.668;2023-12-20T10:42:05;6.43;;;3.60;;
45368;SDS011;51342;55.250;37.668;2023-12-20T10:44:39;4.40;;;2.87;;
45368;SDS011;51342;55.250;37.668;2023-12-20T10:47:12;4.77;;;2.97;;
45368;SDS011;51342;55.250;37.668;2023-12-20T10:49:50;4.63;;;3.10;;
45368;SDS011;51342;55.250;37.668;2023-12-20T10:52:25;4.80;;;3.17;;
45368;SDS011;51342;55.250;37.668;2023-12-20T10:54:58;3.57;;;2.33;;
45368;SDS011;51342;55.250;37.668;2023-12-20T10:57:32;5.37;;;3.17;;
45368;SDS011;51342;55.250;37.668;2023-12-20T11:00:10;4.77;;;2.93;;
45368;SDS011;51342;55.250;37.668;2023-12-20T11:02:48;4.83;;;2.90;;
45368;SDS011;51342;55.250;37.668;2023-12-20T11:08:28;3.95;;;2.58;;
45368;SDS011;51342;55.250;37.668;2023-12-20T11:11:07;3.83;;;2.63;;
45368;SDS011;51342;55.250;37.668;2023-12-20T11:14:05;3.77;;;2.53;;
45368;SDS011;51342;55.250;37.668;2023-12-20T11:16:50;4.47;;;2.50;;
45368;SDS011;51342;55.250;37.668;2023-12-20T11:19:43;3.80;;;2.53;;
45368;SDS011;51342;55.250;37.668;2023-12-20T11:22:36;4.30;;;2.80;;
45368;SDS011;51342;55.250;37.668;2023-12-20T11:25:11;3.90;;;2.50;;
45368;SDS011;51342;55.250;37.668;2023-12-20T11:28:06;3.63;;;2.10;;
45368;SDS011;51342;55.250;37.668;2023-12-20T11:30:51;3.50;;;2.00;;
45368;SDS011;51342;55.250;37.668;2023-12-20T11:33:35;3.37;;;2.10;;
45368;SDS011;51342;55.250;37.668;2023-12-20T11:36:14;2.83;;;2.37;;
45368;SDS011;51342;55.250;37.668;2023-12-20T11:38:58;3.50;;;2.13;;
45368;SDS011;51342;55.250;37.668;2023-12-20T11:41:30;2.57;;;1.77;;
45368;SDS011;51342;55.250;37.668;2023-12-20T11:44:08;3.57;;;2.20;;
45368;SDS011;51342;55.250;37.668;2023-12-20T11:46:44;3.43;;;2.13;;
45368;SDS011;51342;55.250;37.668;2023-12-20T11:49:18;2.77;;;1.97;;
45368;SDS011;51342;55.250;37.668;2023-12-20T11:51:54;4.10;;;2.10;;
45368;SDS011;51342;55.250;37.668;2023-12-20T11:54:30;2.93;;;1.80;;
45368;SDS011;51342;55.250;37.668;2023-12-20T11:57:03;3.33;;;1.73;;
45368;SDS011;51342;55.250;37.668;2023-12-20T11:59:36;2.37;;;1.70;;
45368;SDS011;51342;55.250;37.668;2023-12-20T12:02:11;2.53;;;1.70;;
45368;SDS011;51342;55.250;37.668;2023-12-20T12:04:49;3.83;;;1.80;;
45368;SDS011;51342;55.250;37.668;2023-12-20T12:07:26;2.30;;;1.30;;
45368;SDS011;51342;55.250;37.668;2023-12-20T12:09:58;2.20;;;1.40;;
45368;SDS011;51342;55.250;37.668;2023-12-20T12:12:31;1.97;;;1.20;;
45368;SDS011;51342;55.250;37.668;2023-12-20T12:15:05;1.93;;;1.20;;
45368;SDS011;51342;55.250;37.668;2023-12-20T12:17:52;2.13;;;1.33;;
45368;SDS011;51342;55.250;37.668;2023-12-20T12:20:28;2.20;;;1.30;;
45368;SDS011;51342;55.250;37.668;2023-12-20T12:23:04;1.90;;;1.30;;
45368;SDS011;51342;55.250;37.668;2023-12-20T12:25:38;2.27;;;1.40;;
45368;SDS011;51342;55.250;37.668;2023-12-20T12:28:09;2.30;;;1.17;;
45368;SDS011;51342;55.250;37.668;2023-12-20T12:30:55;2.20;;;1.30;;
45368;SDS011;51342;55.250;37.668;2023-12-20T12:33:32;2.50;;;1.23;;
45368;SDS011;51342;55.250;37.668;2023-12-20T12:38:43;2.17;;;1.10;;
45368;SDS011;51342;55.250;37.668;2023-12-20T12:41:16;2.57;;;1.13;;
45368;SDS011;51342;55.250;37.668;2023-12-20T12:43:52;2.33;;;1.63;;
45368;SDS011;51342;55.250;37.668;2023-12-20T12:46:27;1.90;;;1.20;;
45368;SDS011;51342;55.250;37.668;2023-12-20T12:49:02;2.93;;;1.30;;
45368;SDS011;51342;55.250;37.668;2023-12-20T12:51:38;1.97;;;1.37;;
45368;SDS011;51342;55.250;37.668;2023-12-20T12:54:11;3.17;;;1.50;;
45368;SDS011;51342;55.250;37.668;2023-12-20T12:56:47;2.10;;;1.30;;
45368;SDS011;51342;55.250;37.668;2023-12-20T12:59:21;3.37;;;1.53;;
45368;SDS011;51342;55.250;37.668;2023-12-20T13:01:55;2.60;;;1.50;;
45368;SDS011;51342;55.250;37.668;2023-12-20T13:04:29;2.50;;;1.30;;
45368;SDS011;51342;55.250;37.668;2023-12-20T13:07:01;2.30;;;1.40;;
45368;SDS011;51342;55.250;37.668;2023-12-20T13:09:35;2.27;;;1.67;;
45368;SDS011;51342;55.250;37.668;2023-12-20T13:12:11;2.73;;;1.50;;
45368;SDS011;51342;55.250;37.668;2023-12-20T13:14:45;2.13;;;1.30;;
45368;SDS011;51342;55.250;37.668;2023-12-20T13:17:21;2.20;;;1.60;;
45368;SDS011;51342;55.250;37.668;2023-12-20T13:19:57;2.43;;;1.50;;
45368;SDS011;51342;55.250;37.668;2023-12-20T13:22:33;2.70;;;1.60;;
45368;SDS011;51342;55.250;37.668;2023-12-20T13:25:06;3.23;;;1.80;;
45368;SDS011;51342;55.250;37.668;2023-12-20T13:27:42;3.77;;;2.00;;
45368;SDS011;51342;55.250;37.668;2023-12-20T13:30:18;3.67;;;1.97;;
45368;SDS011;51342;55.250;37.668;2023-12-20T13:32:52;4.03;;;2.13;;
45368;SDS011;51342;55.250;37.668;2023-12-20T13:35:25;3.20;;;1.90;;
45368;SDS011;51342;55.250;37.668;2023-12-20T13:38:00;2.93;;;1.87;;
45368;SDS011;51342;55.250;37.668;2023-12-20T13:40:34;3.37;;;2.00;;
45368;SDS011;51342;55.250;37.668;2023-12-20T13:43:09;3.80;;;2.13;;
45368;SDS011;51342;55.250;37.668;2023-12-20T13:45:45;3.13;;;2.20;;
45368;SDS011;51342;55.250;37.668;2023-12-20T13:48:21;3.33;;;2.20;;
45368;SDS011;51342;55.250;37.668;2023-12-20T13:50:56;3.17;;;2.13;;
45368;SDS011;51342;55.250;37.668;2023-12-20T13:53:32;3.43;;;2.10;;
45368;SDS011;51342;55.250;37.668;2023-12-20T13:56:05;3.40;;;2.30;;
45368;SDS011;51342;55.250;37.668;2023-12-20T13:58:37;3.47;;;2.23;;
45368;SDS011;51342;55.250;37.668;2023-12-20T14:01:13;3.30;;;2.27;;
45368;SDS011;51342;55.250;37.668;2023-12-20T14:03:49;3.50;;;2.13;;
45368;SDS011;51342;55.250;37.668;2023-12-20T14:09:15;4.03;;;2.40;;
45368;SDS011;51342;55.250;37.668;2023-12-20T14:11:50;3.23;;;2.37;;
45368;SDS011;51342;55.250;37.668;2023-12-20T14:14:31;4.13;;;2.60;;
45368;SDS011;51342;55.250;37.668;2023-12-20T14:17:08;4.33;;;2.70;;
45368;SDS011;51342;55.250;37.668;2023-12-20T14:19:44;4.33;;;2.60;;
45368;SDS011;51342;55.250;37.668;2023-12-20T14:22:21;4.47;;;2.40;;
45368;SDS011;51342;55.250;37.668;2023-12-20T14:24:58;3.87;;;2.93;;
45368;SDS011;51342;55.250;37.668;2023-12-20T14:27:48;3.73;;;2.30;;
45368;SDS011;51342;55.250;37.668;2023-12-20T14:30:28;3.73;;;2.40;;
45368;SDS011;51342;55.250;37.668;2023-12-20T14:33:09;4.53;;;2.40;;
45368;SDS011;51342;55.250;37.668;2023-12-20T14:35:42;3.63;;;2.40;;
45368;SDS011;51342;55.250;37.668;2023-12-20T14:38:21;3.20;;;2.20;;
45368;SDS011;51342;55.250;37.668;2023-12-20T14:40:54;2.80;;;2.17;;
45368;SDS011;51342;55.250;37.668;2023-12-20T14:43:31;3.33;;;2.20;;
45368;SDS011;51342;55.250;37.668;2023-12-20T14:46:05;3.63;;;2.20;;
45368;SDS011;51342;55.250;37.668;2023-12-20T14:48:38;3.50;;;2.27;;
45368;SDS011;51342;55.250;37.668;2023-12-20T14:51:11;3.83;;;2.40;;
45368;SDS011;51342;55.250;37.668;2023-12-20T14:53:50;3.05;;;2.20;;
45368;SDS011;51342;55.250;37.668;2023-12-20T14:56:25;3.10;;;2.17;;
45368;SDS011;51342;55.250;37.668;2023-12-20T14:59:00;3.67;;;2.63;;
45368;SDS011;51342;55.250;37.668;2023-12-20T15:01:33;3.20;;;2.10;;
45368;SDS011;51342;55.250;37.668;2023-12-20T15:04:06;3.97;;;2.70;;
45368;SDS011;51342;55.250;37.668;2023-12-20T15:06:42;3.83;;;2.50;;
45368;SDS011;51342;55.250;37.668;2023-12-20T15:09:18;4.57;;;2.80;;
45368;SDS011;51342;55.250;37.668;2023-12-20T15:11:53;3.30;;;2.57;;
45368;SDS011;51342;55.250;37.668;2023-12-20T15:14:26;5.23;;;2.77;;
45368;SDS011;51342;55.250;37.668;2023-12-20T15:17:04;3.72;;;2.70;;
45368;SDS011;51342;55.250;37.668;2023-12-20T15:19:37;3.97;;;2.47;;